createdAt,value
2023-11-23T00:06:11.384Z,4.85
2023-11-23T00:16:13.324Z,4.55
2023-11-23T00:26:15.316Z,4.15
2023-11-23T00:36:17.348Z,4.00
2023-11-23T00:46:19.323Z,4.00
2023-11-23T00:56:21.062Z,5.47
2023-11-23T01:06:23.287Z,4.90
2023-11-23T01:16:26.308Z,5.13
2023-11-23T01:26:28.052Z,4.80
2023-11-23T01:36:29.756Z,4.43
2023-11-23T01:46:32.022Z,4.97
2023-11-23T01:56:33.879Z,4.53
2023-11-23T02:06:35.615Z,8.55
2023-11-23T02:16:38.980Z,11.15
2023-11-23T02:26:41.011Z,11.52
2023-11-23T02:36:42.747Z,12.07
2023-11-23T02:46:44.707Z,11.25
2023-11-23T02:56:46.455Z,10.82
2023-11-23T03:06:48.624Z,11.77
2023-11-23T03:16:51.768Z,12.02
2023-11-23T03:26:53.958Z,11.98
2023-11-23T03:36:56.635Z,8.95
2023-11-23T03:46:58.327Z,9.23
2023-11-23T03:57:00.125Z,8.25
2023-11-23T04:07:02.453Z,8.73
2023-11-23T04:17:04.199Z,7.88
2023-11-23T04:27:06.159Z,9.27
2023-11-23T04:37:07.968Z,7.10
2023-11-23T04:47:09.739Z,7.32
2023-11-23T04:57:11.536Z,6.18
2023-11-23T05:07:13.425Z,7.63
2023-11-23T05:17:15.122Z,8.45
2023-11-23T05:27:17.456Z,7.88
2023-11-23T05:37:19.229Z,7.78
2023-11-23T05:47:20.951Z,7.68
2023-11-23T05:57:24.922Z,8.80
2023-11-23T06:07:26.833Z,9.50
2023-11-23T06:17:28.697Z,8.35
2023-11-23T06:27:33.476Z,9.25
2023-11-23T06:37:37.277Z,12.05
2023-11-23T06:47:41.402Z,9.50
2023-11-23T06:57:47.959Z,11.15
2023-11-23T07:07:50.039Z,10.57
2023-11-23T07:17:51.971Z,9.00
2023-11-23T07:27:53.901Z,11.35
2023-11-23T07:37:55.726Z,9.48
2023-11-23T07:47:57.744Z,9.88
2023-11-23T07:57:59.654Z,12.15
2023-11-23T08:08:01.760Z,8.48
2023-11-23T08:18:07.967Z,8.23
2023-11-23T08:28:10.513Z,8.30
2023-11-23T08:38:15.862Z,8.00
2023-11-23T08:48:17.823Z,8.02
2023-11-23T08:58:19.789Z,8.77
2023-11-23T09:08:21.888Z,7.65
2023-11-23T09:18:24.277Z,7.10
2023-11-23T09:28:26.382Z,7.97
2023-11-23T09:38:28.478Z,6.85
2023-11-23T09:48:35.533Z,7.20
2023-11-23T09:58:37.302Z,5.75
2023-11-23T10:08:39.214Z,7.03
2023-11-23T10:18:44.916Z,5.85
2023-11-23T10:28:48.503Z,6.85
2023-11-23T10:38:51.177Z,6.97
2023-11-23T10:48:54.661Z,7.03
2023-11-23T10:59:01.752Z,6.57
2023-11-23T11:09:15.697Z,7.35
2023-11-23T11:19:18.876Z,6.53
2023-11-23T11:29:22.596Z,6.50
2023-11-23T11:39:28.638Z,6.85
2023-11-23T11:49:31.653Z,7.45
2023-11-23T11:59:37.416Z,7.45
2023-11-23T12:09:44.212Z,6.07
2023-11-23T12:19:53.165Z,5.67
2023-11-23T12:29:55.304Z,7.50
2023-11-23T12:39:57.225Z,5.95
2023-11-23T12:49:59.350Z,6.18
2023-11-23T13:00:02.496Z,6.30
2023-11-23T13:10:07.129Z,6.60
2023-11-23T13:20:10.763Z,7.72
2023-11-23T13:30:12.895Z,5.50
2023-11-23T13:40:14.952Z,7.85
2023-11-23T13:50:18.286Z,5.72
2023-11-23T14:00:23.766Z,6.63
2023-11-23T14:10:27.148Z,7.03
2023-11-23T14:20:29.124Z,6.38
2023-11-23T14:30:30.913Z,4.90
2023-11-23T14:40:33.394Z,5.72
2023-11-23T14:50:35.394Z,6.18
2023-11-23T15:00:40.176Z,5.13
2023-11-23T15:10:42.242Z,5.90
2023-11-23T15:20:47.353Z,6.05
2023-11-23T15:30:50.008Z,6.80
2023-11-23T15:40:51.860Z,8.02
2023-11-23T15:50:53.593Z,10.75
2023-11-23T16:00:55.445Z,11.25
2023-11-23T16:10:57.297Z,10.15
2023-11-23T16:20:59.192Z,12.40
2023-11-23T16:31:01.248Z,11.20
2023-11-23T16:41:03.563Z,10.70
2023-11-23T16:51:06.244Z,12.98
2023-11-23T17:01:08.526Z,14.80
2023-11-23T17:11:10.736Z,14.70
2023-11-23T17:21:12.975Z,14.98
2023-11-23T17:31:15.909Z,15.88
2023-11-23T17:41:17.846Z,15.50
2023-11-23T17:51:20.039Z,16.45
2023-11-23T18:01:22.884Z,19.20
2023-11-23T18:11:24.782Z,18.33
2023-11-23T18:21:26.583Z,19.48
2023-11-23T18:31:28.482Z,17.55
2023-11-23T18:41:30.385Z,16.50
2023-11-23T18:51:32.593Z,16.20
2023-11-23T19:01:34.802Z,15.25
2023-11-23T19:11:38.553Z,16.30
2023-11-23T19:21:40.866Z,15.32
2023-11-23T19:31:50.640Z,15.13
2023-11-23T19:41:53.922Z,15.20
2023-11-23T19:52:00.780Z,13.85
2023-11-23T20:02:02.756Z,16.50
2023-11-23T20:12:05.484Z,14.38
2023-11-23T20:22:07.481Z,18.30
2023-11-23T20:32:09.321Z,13.02
2023-11-23T20:42:12.559Z,17.20
2023-11-23T20:52:15.267Z,19.92
2023-11-23T21:02:18.032Z,20.05
2023-11-23T21:12:27.198Z,18.83
2023-11-23T21:22:30.719Z,14.82
2023-11-23T21:32:33.480Z,18.00
2023-11-23T21:42:36.153Z,18.15
2023-11-23T21:52:40.657Z,17.52
2023-11-23T22:02:42.962Z,18.23
2023-11-23T22:12:45.138Z,16.60
2023-11-23T22:22:47.823Z,18.35
2023-11-23T22:32:55.415Z,18.25
2023-11-23T22:42:58.002Z,17.95
2023-11-23T22:52:59.981Z,18.05
2023-11-23T23:03:01.828Z,19.23
2023-11-23T23:13:07.068Z,20.48
2023-11-23T23:23:11.159Z,19.55
2023-11-23T23:33:13.076Z,18.08
2023-11-23T23:43:14.874Z,16.73
2023-11-23T23:53:17.418Z,17.00
